createdAt,value
2023-11-17T00:00:11.548Z,92.24
2023-11-17T00:01:11.921Z,92.13
2023-11-17T00:02:11.491Z,92.13
2023-11-17T00:03:11.668Z,92.13
2023-11-17T00:04:11.612Z,91.72
2023-11-17T00:05:11.815Z,91.82
2023-11-17T00:06:11.440Z,92.24
2023-11-17T00:07:11.565Z,92.24
2023-11-17T00:08:11.767Z,92.03
2023-11-17T00:09:11.507Z,91.30
2023-11-17T00:10:11.502Z,91.61
2023-11-17T00:11:11.464Z,91.67
2023-11-17T00:12:11.501Z,91.30
2023-11-17T00:13:11.407Z,91.51
2023-11-17T00:14:11.471Z,91.72
2023-11-17T00:15:11.382Z,91.61
2023-11-17T00:16:11.547Z,91.41
2023-11-17T00:17:11.446Z,91.51
2023-11-17T00:18:11.386Z,91.45
2023-11-17T00:19:11.415Z,91.82
2023-11-17T00:20:11.349Z,91.41
2023-11-17T00:21:11.416Z,91.93
2023-11-17T00:22:11.435Z,91.55
2023-11-17T00:23:11.421Z,91.51
2023-11-17T00:24:11.589Z,91.41
2023-11-17T00:25:11.485Z,91.82
2023-11-17T00:26:11.468Z,91.93
2023-11-17T00:27:11.591Z,92.03
2023-11-17T00:28:11.694Z,91.82
2023-11-17T00:29:11.526Z,92.24
2023-11-17T00:30:11.508Z,91.82
2023-11-17T00:31:11.381Z,91.72
2023-11-17T00:32:11.352Z,91.55
2023-11-17T00:33:11.270Z,91.41
2023-11-17T00:34:11.716Z,91.41
2023-11-17T00:35:11.435Z,91.72
2023-11-17T00:36:11.261Z,92.28
2023-11-17T00:37:11.555Z,92.24
2023-11-17T00:38:11.308Z,91.86
2023-11-17T00:39:11.244Z,92.13
2023-11-17T00:40:11.308Z,91.97
2023-11-17T00:41:17.791Z,91.72
2023-11-17T00:42:12.175Z,91.93
2023-11-17T00:43:11.297Z,91.72
2023-11-17T00:44:11.380Z,92.44
2023-11-17T00:45:11.251Z,92.28
2023-11-17T00:46:11.630Z,91.82
2023-11-17T00:47:11.542Z,92.24
2023-11-17T00:48:11.254Z,92.03
2023-11-17T00:49:11.235Z,92.55
2023-11-17T00:50:11.220Z,92.19
2023-11-17T00:51:11.762Z,92.55
2023-11-17T00:52:11.232Z,91.93
2023-11-17T00:53:11.315Z,91.51
2023-11-17T00:54:11.111Z,91.88
2023-11-17T00:55:11.137Z,91.88
2023-11-17T00:56:11.175Z,91.72
2023-11-17T00:57:11.097Z,91.36
2023-11-17T00:58:11.125Z,92.24
2023-11-17T00:59:11.149Z,92.13
2023-11-17T01:00:11.053Z,92.24
2023-11-17T01:01:11.219Z,91.72
2023-11-17T01:02:11.094Z,92.34
2023-11-17T01:03:11.753Z,91.41
2023-11-17T01:04:11.055Z,91.72
2023-11-17T01:05:11.057Z,92.13
2023-11-17T01:06:11.064Z,92.24
2023-11-17T01:07:11.111Z,92.13
2023-11-17T01:08:10.993Z,91.72
2023-11-17T01:09:11.024Z,91.93
2023-11-17T01:10:11.244Z,91.93
2023-11-17T01:11:11.003Z,91.76
2023-11-17T01:12:11.045Z,91.86
2023-11-17T01:13:11.047Z,91.86
2023-11-17T01:14:10.990Z,91.66
2023-11-17T01:15:10.966Z,91.76
2023-11-17T01:16:11.006Z,91.66
2023-11-17T01:17:10.959Z,92.38
2023-11-17T01:18:11.037Z,92.28
2023-11-17T01:19:10.979Z,92.38
2023-11-17T01:20:11.070Z,92.28
2023-11-17T01:21:11.279Z,92.28
2023-11-17T01:22:10.959Z,92.13
2023-11-17T01:23:11.102Z,91.61
2023-11-17T01:24:10.892Z,91.93
2023-11-17T01:25:10.930Z,92.44
2023-11-17T01:26:10.967Z,92.34
2023-11-17T01:27:10.901Z,92.03
2023-11-17T01:28:10.910Z,91.41
2023-11-17T01:29:10.861Z,91.61
2023-11-17T01:30:10.946Z,91.61
2023-11-17T01:31:10.952Z,91.72
2023-11-17T01:32:10.841Z,92.13
2023-11-17T01:33:10.936Z,92.24
2023-11-17T01:34:10.906Z,92.24
2023-11-17T01:35:10.903Z,92.24
2023-11-17T01:36:10.828Z,91.72
2023-11-17T01:37:10.876Z,92.24
2023-11-17T01:38:10.837Z,91.61
2023-11-17T01:39:10.829Z,92.13
2023-11-17T01:40:10.848Z,92.03
2023-11-17T01:41:10.791Z,91.82
2023-11-17T01:42:10.798Z,92.24
2023-11-17T01:43:10.914Z,92.55
2023-11-17T01:44:10.817Z,92.30
2023-11-17T01:45:10.779Z,92.91
2023-11-17T01:46:10.864Z,92.76
2023-11-17T01:47:10.829Z,92.61
2023-11-17T01:48:10.798Z,92.50
2023-11-17T01:49:10.754Z,92.19
2023-11-17T01:50:10.830Z,91.78
2023-11-17T01:51:10.779Z,91.36
2023-11-17T01:52:10.998Z,91.30
2023-11-17T01:53:10.711Z,91.57
2023-11-17T01:54:10.751Z,91.78
2023-11-17T01:55:10.898Z,91.47
2023-11-17T01:56:10.724Z,91.57
2023-11-17T01:57:10.813Z,91.67
2023-11-17T01:58:10.851Z,91.61
2023-11-17T01:59:10.669Z,91.61
2023-11-17T02:00:10.689Z,91.36
2023-11-17T02:01:10.753Z,91.67
2023-11-17T02:02:10.731Z,91.26
2023-11-17T02:03:10.714Z,92.09
2023-11-17T02:04:10.657Z,91.99
2023-11-17T02:05:10.622Z,91.36
2023-11-17T02:06:10.644Z,91.16
2023-11-17T02:07:10.657Z,90.58
2023-11-17T02:08:10.648Z,90.44
2023-11-17T02:09:10.590Z,90.33
2023-11-17T02:10:10.628Z,90.53
2023-11-17T02:11:10.655Z,90.47
2023-11-17T02:12:10.602Z,90.53
2023-11-17T02:13:10.649Z,90.58
2023-11-17T02:14:10.775Z,90.37
2023-11-17T02:15:10.564Z,90.53
2023-11-17T02:16:10.636Z,89.81
2023-11-17T02:17:10.561Z,89.50
2023-11-17T02:18:10.535Z,89.34
2023-11-17T02:19:10.524Z,89.03
2023-11-17T02:20:10.526Z,88.57
2023-11-17T02:21:10.590Z,88.67
2023-11-17T02:22:10.688Z,88.92
2023-11-17T02:23:10.509Z,88.67
2023-11-17T02:24:10.500Z,88.67
2023-11-17T02:25:10.526Z,88.71
2023-11-17T02:26:10.489Z,88.71
2023-11-17T02:27:10.469Z,88.71
2023-11-17T02:28:10.510Z,89.03
2023-11-17T02:29:10.470Z,88.71
2023-11-17T02:30:10.453Z,88.82
2023-11-17T02:31:10.589Z,88.55
2023-11-17T02:32:10.519Z,88.96
2023-11-17T02:33:10.483Z,88.86
2023-11-17T02:34:10.522Z,88.76
2023-11-17T02:35:10.420Z,88.96
2023-11-17T02:36:10.562Z,88.55
2023-11-17T02:37:10.437Z,89.48
2023-11-17T02:38:10.429Z,88.92
2023-11-17T02:39:10.397Z,88.65
2023-11-17T02:40:10.459Z,88.55
2023-11-17T02:41:10.408Z,88.76
2023-11-17T02:42:10.485Z,88.76
2023-11-17T02:43:10.428Z,87.93
2023-11-17T02:44:10.377Z,87.41
2023-11-17T02:45:10.363Z,87.16
2023-11-17T02:46:10.468Z,87.10
2023-11-17T02:47:10.458Z,86.79
2023-11-17T02:48:18.131Z,87.30
2023-11-17T02:49:11.353Z,86.85
2023-11-17T02:50:10.351Z,86.89
2023-11-17T02:51:10.340Z,86.44
2023-11-17T02:52:10.400Z,87.51
2023-11-17T02:53:10.323Z,86.68
2023-11-17T02:54:10.317Z,86.99
2023-11-17T02:55:10.337Z,86.99
2023-11-17T02:56:10.766Z,86.99
2023-11-17T02:57:10.273Z,87.20
2023-11-17T02:58:10.456Z,87.51
2023-11-17T02:59:10.382Z,87.51
2023-11-17T03:00:10.281Z,87.41
2023-11-17T03:01:10.385Z,86.47
2023-11-17T03:02:10.288Z,86.27
2023-11-17T03:03:10.343Z,86.41
2023-11-17T03:04:10.377Z,86.37
2023-11-17T03:05:10.288Z,86.31
2023-11-17T03:06:10.278Z,86.52
2023-11-17T03:07:10.267Z,86.41
2023-11-17T03:08:10.203Z,86.52
2023-11-17T03:09:10.401Z,87.70
2023-11-17T03:10:10.277Z,87.66
2023-11-17T03:11:10.406Z,87.66
2023-11-17T03:12:10.180Z,87.04
2023-11-17T03:13:10.503Z,87.38
2023-11-17T03:14:10.181Z,86.66
2023-11-17T03:15:10.166Z,86.66
2023-11-17T03:16:10.278Z,86.76
2023-11-17T03:17:10.342Z,87.70
2023-11-17T03:18:10.159Z,87.14
2023-11-17T03:19:10.222Z,87.04
2023-11-17T03:20:10.131Z,87.07
2023-11-17T03:21:12.743Z,87.28
2023-11-17T03:22:10.380Z,87.14
2023-11-17T03:23:10.110Z,86.97
2023-11-17T03:24:10.092Z,87.59
2023-11-17T03:25:10.143Z,87.07
2023-11-17T03:26:10.138Z,87.18
2023-11-17T03:27:10.078Z,87.63
2023-11-17T03:28:10.685Z,87.70
2023-11-17T03:29:10.096Z,87.43
2023-11-17T03:30:10.092Z,87.74
2023-11-17T03:31:10.162Z,87.59
2023-11-17T03:32:10.125Z,87.70
2023-11-17T03:33:10.191Z,87.18
2023-11-17T03:34:10.092Z,87.63
2023-11-17T03:35:10.022Z,87.74
2023-11-17T03:36:10.130Z,87.43
2023-11-17T03:37:10.072Z,86.70
2023-11-17T03:38:10.003Z,86.80
2023-11-17T03:39:10.068Z,87.53
2023-11-17T03:40:10.050Z,87.12
2023-11-17T03:41:10.132Z,87.22
2023-11-17T03:42:10.032Z,87.12
2023-11-17T03:43:10.054Z,87.12
2023-11-17T03:44:09.989Z,87.32
2023-11-17T03:45:09.950Z,87.26
2023-11-17T03:46:10.284Z,87.43
2023-11-17T03:47:10.026Z,87.57
2023-11-17T03:48:10.003Z,87.53
2023-11-17T03:49:10.073Z,87.12
2023-11-17T03:50:09.969Z,87.32
2023-11-17T03:51:10.323Z,87.22
2023-11-17T03:52:09.922Z,87.22
2023-11-17T03:53:09.908Z,87.12
2023-11-17T03:54:09.898Z,87.53
2023-11-17T03:55:09.910Z,87.32
2023-11-17T03:56:09.891Z,87.88
2023-11-17T03:57:09.912Z,87.63
2023-11-17T03:58:09.927Z,87.37
2023-11-17T03:59:09.878Z,87.78
2023-11-17T04:00:09.858Z,87.47
2023-11-17T04:01:09.964Z,87.26
2023-11-17T04:02:09.850Z,87.16
2023-11-17T04:03:10.030Z,87.37
2023-11-17T04:04:09.862Z,87.26
2023-11-17T04:05:10.060Z,87.05
2023-11-17T04:06:09.989Z,87.16
2023-11-17T04:07:09.855Z,87.68
2023-11-17T04:08:09.906Z,87.88
2023-11-17T04:09:09.807Z,88.61
2023-11-17T04:10:09.872Z,88.51
2023-11-17T04:11:09.892Z,88.65
2023-11-17T04:12:09.784Z,88.44
2023-11-17T04:13:09.835Z,88.75
2023-11-17T04:14:09.782Z,88.34
2023-11-17T04:15:12.262Z,88.71
2023-11-17T04:16:09.792Z,88.71
2023-11-17T04:17:09.912Z,88.54
2023-11-17T04:18:09.743Z,88.71
2023-11-17T04:19:09.747Z,88.92
2023-11-17T04:20:09.733Z,88.92
2023-11-17T04:21:09.724Z,89.03
2023-11-17T04:22:09.747Z,89.34
2023-11-17T04:23:09.706Z,88.92
2023-11-17T04:24:09.709Z,88.75
2023-11-17T04:25:09.780Z,89.19
2023-11-17T04:26:09.758Z,89.23
2023-11-17T04:27:09.757Z,89.34
2023-11-17T04:28:09.743Z,89.23
2023-11-17T04:29:09.664Z,89.13
2023-11-17T04:30:09.751Z,89.23
2023-11-17T04:31:09.668Z,89.61
2023-11-17T04:32:09.640Z,89.65
2023-11-17T04:33:09.764Z,88.92
2023-11-17T04:34:09.752Z,89.13
2023-11-17T04:35:09.900Z,89.65
2023-11-17T04:36:09.618Z,88.98
2023-11-17T04:37:09.891Z,89.13
2023-11-17T04:38:09.606Z,88.71
2023-11-17T04:39:09.660Z,89.34
2023-11-17T04:40:09.592Z,89.03
2023-11-17T04:41:09.575Z,89.23
2023-11-17T04:42:09.588Z,89.50
2023-11-17T04:43:09.598Z,89.13
2023-11-17T04:44:09.550Z,88.36
2023-11-17T04:45:09.627Z,89.23
2023-11-17T04:46:09.651Z,88.88
2023-11-17T04:47:09.552Z,88.20
2023-11-17T04:48:09.552Z,88.98
2023-11-17T04:49:09.562Z,89.03
2023-11-17T04:50:09.578Z,89.29
2023-11-17T04:51:09.558Z,88.98
2023-11-17T04:52:09.589Z,88.78
2023-11-17T04:53:09.507Z,88.67
2023-11-17T04:54:09.501Z,88.46
2023-11-17T04:55:09.517Z,88.88
2023-11-17T04:56:09.484Z,88.98
2023-11-17T04:57:09.650Z,88.78
2023-11-17T04:58:09.513Z,88.78
2023-11-17T04:59:09.493Z,89.04
2023-11-17T05:00:09.456Z,88.36
2023-11-17T05:01:09.551Z,89.19
2023-11-17T05:02:09.576Z,88.78
2023-11-17T05:03:09.552Z,89.09
2023-11-17T05:04:09.581Z,88.84
2023-11-17T05:05:09.434Z,89.09
2023-11-17T05:06:09.441Z,88.88
2023-11-17T05:07:09.497Z,88.63
2023-11-17T05:08:09.404Z,88.88
2023-11-17T05:09:09.548Z,89.19
2023-11-17T05:10:09.569Z,89.71
2023-11-17T05:11:09.392Z,89.50
2023-11-17T05:12:09.372Z,89.81
2023-11-17T05:13:09.404Z,90.95
2023-11-17T05:14:09.365Z,90.89
2023-11-17T05:15:09.410Z,91.03
2023-11-17T05:16:09.462Z,91.35
2023-11-17T05:17:09.429Z,91.45
2023-11-17T05:18:09.523Z,91.91
2023-11-17T05:19:09.577Z,92.11
2023-11-17T05:20:09.335Z,92.63
2023-11-17T05:21:09.642Z,92.94
2023-11-17T05:22:09.326Z,92.84
2023-11-17T05:23:09.300Z,92.90
2023-11-17T05:24:09.319Z,93.12
2023-11-17T05:25:09.351Z,93.12
2023-11-17T05:26:09.284Z,93.12
2023-11-17T05:27:09.273Z,93.12
2023-11-17T05:28:09.331Z,93.01
2023-11-17T05:29:09.562Z,92.90
2023-11-17T05:30:09.351Z,92.45
2023-11-17T05:31:09.387Z,92.55
2023-11-17T05:32:09.516Z,91.68
2023-11-17T05:33:09.514Z,91.52
2023-11-17T05:34:09.326Z,91.52
2023-11-17T05:35:09.489Z,91.47
2023-11-17T05:36:09.226Z,91.78
2023-11-17T05:37:09.228Z,91.68
2023-11-17T05:38:09.200Z,91.47
2023-11-17T05:39:09.194Z,91.53
2023-11-17T05:40:09.299Z,91.02
2023-11-17T05:41:09.244Z,91.22
2023-11-17T05:42:09.217Z,91.22
2023-11-17T05:43:09.212Z,90.70
2023-11-17T05:44:09.166Z,90.70
2023-11-17T05:45:09.516Z,90.50
2023-11-17T05:46:09.207Z,90.60
2023-11-17T05:47:09.152Z,90.60
2023-11-17T05:48:09.216Z,90.50
2023-11-17T05:49:09.201Z,89.87
2023-11-17T05:50:09.222Z,89.98
2023-11-17T05:51:09.111Z,90.54
2023-11-17T05:52:09.145Z,90.44
2023-11-17T05:53:09.171Z,91.16
2023-11-17T05:54:09.103Z,91.16
2023-11-17T05:55:09.145Z,91.27
2023-11-17T05:56:09.201Z,91.27
2023-11-17T05:57:09.097Z,91.68
2023-11-17T05:58:09.185Z,91.68
2023-11-17T05:59:09.079Z,91.78
2023-11-17T06:00:09.070Z,91.74
2023-11-17T06:01:09.122Z,91.43
2023-11-17T06:02:09.069Z,91.12
2023-11-17T06:03:09.132Z,91.43
2023-11-17T06:04:09.166Z,90.77
2023-11-17T06:05:09.041Z,90.91
2023-11-17T06:06:09.053Z,90.50
2023-11-17T06:07:09.068Z,90.45
2023-11-17T06:08:09.019Z,90.14
2023-11-17T06:09:09.002Z,90.45
2023-11-17T06:10:09.029Z,90.45
2023-11-17T06:11:10.448Z,89.73
2023-11-17T06:12:09.625Z,89.11
2023-11-17T06:13:09.133Z,89.31
2023-11-17T06:14:09.487Z,89.31
2023-11-17T06:15:09.007Z,89.11
2023-11-17T06:16:09.632Z,88.94
2023-11-17T06:17:08.992Z,88.69
2023-11-17T06:18:11.208Z,89.15
2023-11-17T06:19:08.979Z,89.11
2023-11-17T06:20:11.422Z,88.69
2023-11-17T06:21:08.934Z,89.25
2023-11-17T06:22:11.010Z,89.00
2023-11-17T06:23:08.903Z,89.52
2023-11-17T06:24:08.912Z,89.04
2023-11-17T06:25:08.941Z,89.77
2023-11-17T06:26:09.043Z,89.46
2023-11-17T06:27:08.899Z,88.73
2023-11-17T06:28:08.946Z,89.50
2023-11-17T06:29:08.879Z,89.50
2023-11-17T06:30:08.907Z,89.36
2023-11-17T06:31:08.921Z,90.19
2023-11-17T06:32:08.900Z,90.14
2023-11-17T06:33:09.011Z,90.25
2023-11-17T06:34:08.902Z,90.35
2023-11-17T06:35:08.850Z,89.52
2023-11-17T06:36:08.827Z,89.42
2023-11-17T06:37:08.826Z,89.21
2023-11-17T06:38:08.901Z,89.62
2023-11-17T06:39:08.805Z,89.58
2023-11-17T06:40:08.983Z,89.58
2023-11-17T06:41:08.779Z,89.07
2023-11-17T06:42:08.776Z,88.76
2023-11-17T06:43:08.827Z,87.35
2023-11-17T06:44:08.773Z,87.04
2023-11-17T06:45:08.769Z,86.76
2023-11-17T06:46:08.830Z,87.28
2023-11-17T06:47:08.935Z,87.70
2023-11-17T06:48:08.875Z,89.04
2023-11-17T06:49:08.770Z,88.73
2023-11-17T06:50:08.736Z,88.69
2023-11-17T06:51:08.738Z,88.90
2023-11-17T06:52:08.983Z,88.28
2023-11-17T06:53:08.763Z,87.82
2023-11-17T06:54:09.028Z,88.07
2023-11-17T06:55:08.725Z,87.72
2023-11-17T06:56:08.697Z,87.97
2023-11-17T06:57:08.674Z,88.07
2023-11-17T06:58:08.727Z,87.76
2023-11-17T06:59:08.673Z,88.96
2023-11-17T07:00:08.815Z,88.39
2023-11-17T07:01:08.916Z,88.79
2023-11-17T07:02:08.704Z,88.18
2023-11-17T07:03:08.823Z,88.39
2023-11-17T07:04:08.825Z,88.39
2023-11-17T07:05:08.645Z,88.39
2023-11-17T07:06:08.660Z,88.90
2023-11-17T07:07:11.329Z,88.69
2023-11-17T07:08:08.628Z,89.00
2023-11-17T07:09:08.585Z,88.90
2023-11-17T07:10:08.772Z,88.79
2023-11-17T07:11:08.585Z,88.90
2023-11-17T07:12:08.684Z,88.86
2023-11-17T07:13:08.669Z,88.39
2023-11-17T07:14:08.588Z,88.45
2023-11-17T07:15:08.584Z,87.76
2023-11-17T07:16:08.590Z,87.24
2023-11-17T07:17:08.590Z,87.87
2023-11-17T07:18:08.668Z,87.20
2023-11-17T07:19:08.566Z,87.55
2023-11-17T07:20:08.542Z,87.24
2023-11-17T07:21:08.534Z,87.55
2023-11-17T07:22:08.610Z,87.87
2023-11-17T07:23:08.552Z,88.24
2023-11-17T07:24:08.499Z,87.82
2023-11-17T07:25:08.650Z,87.72
2023-11-17T07:26:08.614Z,87.93
2023-11-17T07:27:08.466Z,87.27
2023-11-17T07:28:08.516Z,86.96
2023-11-17T07:29:08.511Z,87.16
2023-11-17T07:30:08.520Z,87.06
2023-11-17T07:31:08.496Z,86.65
2023-11-17T07:32:08.484Z,86.96
2023-11-17T07:33:08.468Z,86.85
2023-11-17T07:34:08.449Z,86.96
2023-11-17T07:35:08.423Z,86.91
2023-11-17T07:36:08.464Z,87.02
2023-11-17T07:37:08.485Z,85.99
2023-11-17T07:38:08.566Z,86.09
2023-11-17T07:39:08.399Z,86.40
2023-11-17T07:40:08.485Z,86.29
2023-11-17T07:41:08.479Z,86.15
2023-11-17T07:42:08.485Z,86.25
2023-11-17T07:43:08.482Z,86.19
2023-11-17T07:44:08.522Z,85.16
2023-11-17T07:45:08.512Z,85.94
2023-11-17T07:46:08.369Z,85.47
2023-11-17T07:47:08.376Z,85.47
2023-11-17T07:48:08.475Z,85.16
2023-11-17T07:49:08.339Z,85.57
2023-11-17T07:50:08.351Z,85.36
2023-11-17T07:51:08.309Z,85.78
2023-11-17T07:52:08.324Z,85.36
2023-11-17T07:53:08.318Z,85.68
2023-11-17T07:54:08.284Z,85.68
2023-11-17T07:55:08.319Z,85.26
2023-11-17T07:56:08.338Z,85.50
2023-11-17T07:57:08.264Z,85.61
2023-11-17T07:58:08.461Z,86.02
2023-11-17T07:59:08.308Z,86.23
2023-11-17T08:00:08.243Z,86.17
2023-11-17T08:01:08.340Z,87.20
2023-11-17T08:02:08.230Z,87.10
2023-11-17T08:03:08.322Z,87.04
2023-11-17T08:04:08.396Z,86.93
2023-11-17T08:05:08.284Z,87.87
2023-11-17T08:06:08.210Z,87.62
2023-11-17T08:07:08.223Z,87.93
2023-11-17T08:08:08.217Z,88.86
2023-11-17T08:09:08.289Z,87.99
2023-11-17T08:10:08.233Z,86.96
2023-11-17T08:11:08.180Z,87.06
2023-11-17T08:12:08.171Z,87.16
2023-11-17T08:13:08.203Z,86.81
2023-11-17T08:14:08.267Z,87.12
2023-11-17T08:15:08.148Z,86.91
2023-11-17T08:16:08.277Z,86.15
2023-11-17T08:17:08.169Z,85.84
2023-11-17T08:18:08.280Z,86.01
2023-11-17T08:19:18.158Z,85.94
2023-11-17T08:20:09.136Z,85.42
2023-11-17T08:21:08.201Z,85.42
2023-11-17T08:22:08.143Z,86.36
2023-11-17T08:23:08.127Z,85.84
2023-11-17T08:24:08.083Z,85.99
2023-11-17T08:25:08.136Z,86.09
2023-11-17T08:26:08.062Z,86.29
2023-11-17T08:27:08.061Z,87.23
2023-11-17T08:28:08.143Z,87.02
2023-11-17T08:29:08.052Z,86.91
2023-11-17T08:30:08.165Z,86.88
2023-11-17T08:31:08.096Z,86.98
2023-11-17T08:32:08.209Z,86.15
2023-11-17T08:33:08.615Z,86.40
2023-11-17T08:34:08.210Z,86.81
2023-11-17T08:35:08.020Z,86.81
2023-11-17T08:36:08.002Z,87.64
2023-11-17T08:37:08.022Z,87.08
2023-11-17T08:38:08.048Z,87.12
2023-11-17T08:39:07.978Z,87.08
2023-11-17T08:40:08.028Z,86.88
2023-11-17T08:41:07.998Z,87.15
2023-11-17T08:42:07.994Z,86.94
2023-11-17T08:43:08.237Z,86.94
2023-11-17T08:44:08.214Z,86.21
2023-11-17T08:45:08.045Z,86.11
2023-11-17T08:46:08.309Z,86.07
2023-11-17T08:47:08.008Z,85.66
2023-11-17T08:48:07.986Z,85.10
2023-11-17T08:49:07.937Z,84.94
2023-11-17T08:50:07.962Z,83.80
2023-11-17T08:51:07.925Z,83.49
2023-11-17T08:52:08.139Z,84.77
2023-11-17T08:53:07.916Z,85.39
2023-11-17T08:54:07.902Z,86.11
2023-11-17T08:55:08.002Z,85.70
2023-11-17T08:56:07.894Z,84.56
2023-11-17T08:57:07.862Z,85.08
2023-11-17T08:58:08.001Z,85.60
2023-11-17T08:59:07.852Z,85.28
2023-11-17T09:00:07.879Z,85.66
2023-11-17T09:01:07.901Z,85.76
2023-11-17T09:02:08.096Z,84.94
2023-11-17T09:03:08.316Z,84.94
2023-11-17T09:04:07.896Z,84.48
2023-11-17T09:05:07.829Z,84.73
2023-11-17T09:06:07.855Z,84.89
2023-11-17T09:07:07.843Z,85.10
2023-11-17T09:08:07.814Z,85.31
2023-11-17T09:09:19.982Z,84.86
2023-11-17T09:10:08.807Z,84.34
2023-11-17T09:11:07.857Z,84.44
2023-11-17T09:12:07.756Z,84.20
2023-11-17T09:13:07.857Z,84.03
2023-11-17T09:14:07.791Z,83.68
2023-11-17T09:15:07.744Z,83.34
2023-11-17T09:16:07.878Z,84.07
2023-11-17T09:17:07.962Z,84.48
2023-11-17T09:18:07.914Z,84.52
2023-11-17T09:19:07.764Z,85.35
2023-11-17T09:20:07.706Z,85.70
2023-11-17T09:21:07.720Z,85.91
2023-11-17T09:22:07.827Z,86.21
2023-11-17T09:23:07.776Z,86.07
2023-11-17T09:24:07.717Z,85.97
2023-11-17T09:25:07.724Z,84.79
2023-11-17T09:26:07.689Z,85.76
2023-11-17T09:27:07.680Z,86.03
2023-11-17T09:28:07.697Z,85.76
2023-11-17T09:29:07.695Z,86.49
2023-11-17T09:30:07.649Z,86.76
2023-11-17T09:31:07.666Z,85.62
2023-11-17T09:32:07.651Z,85.21
2023-11-17T09:33:07.723Z,85.83
2023-11-17T09:34:07.833Z,85.21
2023-11-17T09:35:07.612Z,85.31
2023-11-17T09:36:07.627Z,84.89
2023-11-17T09:37:07.624Z,84.59
2023-11-17T09:38:07.626Z,84.96
2023-11-17T09:39:07.670Z,84.44
2023-11-17T09:40:07.614Z,83.86
2023-11-17T09:41:07.584Z,84.44
2023-11-17T09:42:07.561Z,84.23
2023-11-17T09:43:07.691Z,84.61
2023-11-17T09:44:07.576Z,83.68
2023-11-17T09:45:07.553Z,83.54
2023-11-17T09:46:07.576Z,83.13
2023-11-17T09:47:07.545Z,83.03
2023-11-17T09:48:07.616Z,82.30
2023-11-17T09:49:07.568Z,81.17
2023-11-17T09:50:07.653Z,81.44
2023-11-17T09:51:07.509Z,79.90
2023-11-17T09:52:07.520Z,80.10
2023-11-17T09:53:07.535Z,80.10
2023-11-17T09:54:07.485Z,79.86
2023-11-17T09:55:07.481Z,80.06
2023-11-17T09:56:07.503Z,79.61
2023-11-17T09:57:07.492Z,80.19
2023-11-17T09:58:08.066Z,78.44
2023-11-17T09:59:07.489Z,78.30
2023-11-17T10:00:07.479Z,77.89
2023-11-17T10:01:07.512Z,78.38
2023-11-17T10:02:07.535Z,77.51
2023-11-17T10:03:07.496Z,77.72
2023-11-17T10:04:07.620Z,77.83
2023-11-17T10:05:07.446Z,77.51
2023-11-17T10:06:07.539Z,77.00
2023-11-17T10:07:07.417Z,77.72
2023-11-17T10:08:07.407Z,77.51
2023-11-17T10:09:07.386Z,77.42
2023-11-17T10:10:07.383Z,77.89
2023-11-17T10:11:07.402Z,76.25
2023-11-17T10:12:07.369Z,76.07
2023-11-17T10:13:07.393Z,76.59
2023-11-17T10:14:07.386Z,76.59
2023-11-17T10:15:07.339Z,76.90
2023-11-17T10:16:07.409Z,76.49
2023-11-17T10:17:07.362Z,76.90
2023-11-17T10:18:07.330Z,76.66
2023-11-17T10:19:07.350Z,76.14
2023-11-17T10:20:07.300Z,75.73
2023-11-17T10:21:07.302Z,75.49
2023-11-17T10:22:07.448Z,76.14
2023-11-17T10:23:07.279Z,74.77
2023-11-17T10:24:07.303Z,74.57
2023-11-17T10:25:07.274Z,74.80
2023-11-17T10:26:07.322Z,74.77
2023-11-17T10:27:07.253Z,71.66
2023-11-17T10:28:07.281Z,72.38
2023-11-17T10:29:07.245Z,71.52
2023-11-17T10:30:07.294Z,72.75
2023-11-17T10:31:07.259Z,71.48
2023-11-17T10:32:22.720Z,70.77
2023-11-17T10:33:14.790Z,70.77
2023-11-17T10:34:08.316Z,70.36
2023-11-17T10:35:07.487Z,70.50
2023-11-17T10:36:07.183Z,69.92
2023-11-17T10:37:07.202Z,69.78
2023-11-17T10:38:07.295Z,69.75
2023-11-17T10:39:07.173Z,69.82
2023-11-17T10:40:11.534Z,68.28
2023-11-17T10:41:08.164Z,67.49
2023-11-17T10:42:07.137Z,68.45
2023-11-17T10:43:07.147Z,67.66
2023-11-17T10:44:07.126Z,69.84
2023-11-17T10:45:07.790Z,69.20
2023-11-17T10:46:07.217Z,69.33
2023-11-17T10:47:07.250Z,69.71
2023-11-17T10:48:07.139Z,68.86
2023-11-17T10:49:07.173Z,68.35
2023-11-17T10:50:07.108Z,68.93
2023-11-17T10:51:07.356Z,66.95
2023-11-17T10:52:07.149Z,64.60
2023-11-17T10:53:07.067Z,64.80
2023-11-17T10:54:07.298Z,65.96
2023-11-17T10:55:07.095Z,66.37
2023-11-17T10:56:07.088Z,67.67
2023-11-17T10:57:07.059Z,65.28
2023-11-17T10:58:07.053Z,65.12
2023-11-17T10:59:07.026Z,63.93
2023-11-17T11:00:07.132Z,62.88
2023-11-17T11:01:07.074Z,59.85
2023-11-17T11:02:07.014Z,61.58
2023-11-17T11:03:07.039Z,59.64
2023-11-17T11:04:07.096Z,62.51
2023-11-17T11:05:06.982Z,62.88
2023-11-17T11:06:07.036Z,62.76
2023-11-17T11:07:06.970Z,62.45
2023-11-17T11:08:06.957Z,61.73
2023-11-17T11:09:06.975Z,59.77
2023-11-17T11:10:07.110Z,59.12
2023-11-17T11:11:06.986Z,59.26
2023-11-17T11:12:06.929Z,59.97
2023-11-17T11:13:06.957Z,58.44
2023-11-17T11:14:06.913Z,58.67
2023-11-17T11:15:06.977Z,59.64
2023-11-17T11:16:07.659Z,59.91
2023-11-17T11:17:06.960Z,62.83
2023-11-17T11:18:06.937Z,64.03
2023-11-17T11:19:06.902Z,62.98
2023-11-17T11:20:21.315Z,62.98
2023-11-17T11:21:08.046Z,61.88
2023-11-17T11:22:06.871Z,62.21
2023-11-17T11:23:06.847Z,64.33
2023-11-17T11:24:06.899Z,64.95
2023-11-17T11:25:07.084Z,63.96
2023-11-17T11:26:07.137Z,62.71
2023-11-17T11:27:07.082Z,61.79
2023-11-17T11:28:06.831Z,61.49
2023-11-17T11:29:06.814Z,61.00
2023-11-17T11:30:06.878Z,60.88
2023-11-17T11:31:06.847Z,63.02
2023-11-17T11:32:06.879Z,64.59
2023-11-17T11:33:06.880Z,65.23
2023-11-17T11:34:06.792Z,65.67
2023-11-17T11:35:06.784Z,66.93
2023-11-17T11:36:06.773Z,67.44
2023-11-17T11:37:06.855Z,67.69
2023-11-17T11:38:06.745Z,67.28
2023-11-17T11:39:06.742Z,67.35
2023-11-17T11:40:06.828Z,65.96
2023-11-17T11:41:06.870Z,64.32
2023-11-17T11:42:06.838Z,65.01
2023-11-17T11:43:06.758Z,64.29
2023-11-17T11:44:06.697Z,64.54
2023-11-17T11:45:06.702Z,64.13
2023-11-17T11:46:06.765Z,60.75
2023-11-17T11:47:07.231Z,61.80
2023-11-17T11:48:06.697Z,62.76
2023-11-17T11:49:06.677Z,63.81
2023-11-17T11:50:06.658Z,64.94
2023-11-17T11:51:06.656Z,64.12
2023-11-17T11:52:06.697Z,63.81
2023-11-17T11:53:06.662Z,64.56
2023-11-17T11:54:06.988Z,64.25
2023-11-17T11:55:06.669Z,64.32
2023-11-17T11:56:06.828Z,64.45
2023-11-17T11:57:06.859Z,63.60
2023-11-17T11:58:06.771Z,64.14
2023-11-17T11:59:06.622Z,64.56
2023-11-17T12:00:06.588Z,64.41
2023-11-17T12:01:06.610Z,65.98
2023-11-17T12:02:06.620Z,65.74
2023-11-17T12:03:06.672Z,65.95
2023-11-17T12:04:06.759Z,67.32
2023-11-17T12:05:06.647Z,65.45
2023-11-17T12:06:06.764Z,65.39
2023-11-17T12:07:06.839Z,64.03
2023-11-17T12:08:06.533Z,62.77
2023-11-17T12:09:06.517Z,61.95
2023-11-17T12:10:06.607Z,60.96
2023-11-17T12:11:06.505Z,62.73
2023-11-17T12:12:06.516Z,63.09
2023-11-17T12:13:06.544Z,63.94
2023-11-17T12:14:06.712Z,64.65
2023-11-17T12:15:06.495Z,64.14
2023-11-17T12:16:06.495Z,64.48
2023-11-17T12:17:06.581Z,65.00
2023-11-17T12:18:06.634Z,65.71
2023-11-17T12:19:06.518Z,65.51
2023-11-17T12:20:06.449Z,65.23
2023-11-17T12:21:06.445Z,64.92
2023-11-17T12:22:06.597Z,64.79
2023-11-17T12:23:06.430Z,64.22
2023-11-17T12:24:06.411Z,64.53
2023-11-17T12:25:06.440Z,64.06
2023-11-17T12:26:06.401Z,63.65
2023-11-17T12:27:07.022Z,62.70
2023-11-17T12:28:06.426Z,61.36
2023-11-17T12:29:06.398Z,62.29
2023-11-17T12:30:06.498Z,60.96
2023-11-17T12:31:06.470Z,61.44
2023-11-17T12:32:06.548Z,61.95
2023-11-17T12:33:06.501Z,61.61
2023-11-17T12:34:06.501Z,61.18
2023-11-17T12:35:06.343Z,60.57
2023-11-17T12:36:06.331Z,59.49
2023-11-17T12:37:06.371Z,57.55
2023-11-17T12:38:06.330Z,57.14
2023-11-17T12:39:06.315Z,58.06
2023-11-17T12:40:06.372Z,57.65
2023-11-17T12:41:06.377Z,57.37
2023-11-17T12:42:06.311Z,58.04
2023-11-17T12:43:06.311Z,58.22
2023-11-17T12:44:06.281Z,58.96
2023-11-17T12:45:06.267Z,57.40
2023-11-17T12:46:06.351Z,57.12
2023-11-17T12:47:17.301Z,58.65
2023-11-17T12:48:07.286Z,58.65
2023-11-17T12:49:06.327Z,59.30
2023-11-17T12:50:06.263Z,59.70
2023-11-17T12:51:06.264Z,59.73
2023-11-17T12:52:06.277Z,60.35